createdAt,value
2023-03-29T00:26:22.737Z,3.97
2023-03-29T00:46:22.728Z,4.08
2023-03-29T01:06:22.888Z,4.29
2023-03-29T01:26:22.702Z,4.22
2023-03-29T01:46:22.694Z,4.18
2023-03-29T02:06:22.678Z,4.24
2023-03-29T02:26:22.670Z,4.29
2023-03-29T02:46:22.671Z,4.34
2023-03-29T03:06:22.638Z,4.39
2023-03-29T03:26:22.632Z,4.40
2023-03-29T03:46:22.630Z,4.42
2023-03-29T04:06:22.620Z,4.31
2023-03-29T04:26:22.595Z,4.19
2023-03-29T04:46:22.644Z,4.18
2023-03-29T05:06:22.589Z,4.24
2023-03-29T05:26:22.570Z,4.30
2023-03-29T06:06:22.549Z,4.68
2023-03-29T06:26:22.553Z,4.86
2023-03-29T06:46:22.527Z,5.13
2023-03-29T07:06:22.546Z,5.70
2023-03-29T07:26:22.502Z,6.26
2023-03-29T07:46:22.485Z,6.70
2023-03-29T08:06:22.476Z,7.14
2023-03-29T08:26:22.456Z,7.41
2023-03-29T08:46:22.447Z,7.79
2023-03-29T09:06:22.425Z,8.24
2023-03-29T09:26:22.400Z,8.79
2023-03-29T09:46:22.403Z,9.14
2023-03-29T10:06:22.381Z,9.70
2023-03-29T10:26:22.356Z,10.03
2023-03-29T10:46:22.333Z,10.41
2023-03-29T11:06:22.322Z,10.77
2023-03-29T11:26:22.302Z,10.86
2023-03-29T11:46:22.264Z,11.00
2023-03-29T12:06:22.305Z,11.12
2023-03-29T12:26:22.228Z,11.56
2023-03-29T12:46:22.220Z,12.23
2023-03-29T13:06:22.228Z,12.07
2023-03-29T13:26:22.158Z,12.26
2023-03-29T13:46:22.137Z,12.74
2023-03-29T14:06:22.100Z,12.96
2023-03-29T14:26:22.096Z,13.11
2023-03-29T14:46:22.059Z,12.98
2023-03-29T15:06:22.036Z,12.64
2023-03-29T15:26:22.037Z,12.36
2023-03-29T15:46:21.988Z,12.04
2023-03-29T16:06:21.966Z,11.66
2023-03-29T16:26:21.952Z,11.46
2023-03-29T16:46:21.950Z,11.28
2023-03-29T17:06:21.913Z,11.07
2023-03-29T17:26:21.881Z,10.84
2023-03-29T17:46:21.852Z,10.63
2023-03-29T18:06:21.847Z,10.47
2023-03-29T18:26:21.813Z,10.26
2023-03-29T18:46:21.811Z,10.08
2023-03-29T19:06:21.784Z,9.93
2023-03-29T19:26:21.777Z,9.79
2023-03-29T19:46:21.755Z,9.60
2023-03-29T20:06:21.725Z,9.46
2023-03-29T20:26:21.694Z,9.38
2023-03-29T20:46:21.710Z,9.26
2023-03-29T21:06:21.675Z,9.14
2023-03-29T21:26:21.642Z,9.03
2023-03-29T22:26:21.641Z,8.79
2023-03-29T22:46:21.571Z,8.73
2023-03-29T23:06:21.538Z,8.64
2023-03-29T23:26:21.547Z,8.56
